Moville, Iowa
Current Conditions -  °F | °C
As of 2:52 PM on Friday 31 Oct 2014 (Local Time) from KSUX Reporting Station
Clear Clear  
Wind Chill: 38°   Ceiling: Unl
Heat Index: 42°   Visibility: 10mi
Dew Point: 19°   Wind: 7mph
Humidity: 40%   Direction: 30°NNE
Pressure: 30.52"   Gusts: NA
Location:  42.49°N, 96.07°W
Report Text: KSUX 311952Z 03006KT 10SM CLR 06/M07 A3052 RMK AO2 SLP344 T00561072
Loading
Personal Weather Stations






























Interactive Weather Map
Tropical Storm Tracking
New forecast layout! Learn more

10-Day Weather Forecast

Advertisements
Track Severe Weather on mobile